ADDS METAR Data INFO
IDs: Format: Raw Decoded Include TAF

Data at: 2053 UTC 26 May 2017

KBPG 262035Z AUTO 23007KT 10SM CLR 36/M04 A2987 RMK AO2 T03591042
KBPG 262015Z AUTO 27010G18KT 10SM CLR 36/M04 A2988 RMK AO2 T03601041
KBPG 261955Z AUTO 26011G17KT 10SM CLR 36/M03 A2988 RMK AO2 T03621031
KBPG 261935Z AUTO 21010G14KT 10SM CLR 36/00 A2988 RMK AO2 T03551005
KBPG 261915Z AUTO 26013G19KT 10SM CLR 35/M02 A2989 RMK AO2 T03491016
KBPG 261855Z AUTO 33004KT 10SM CLR 35/M02 A2990 RMK AO2 T03451022
KBPG 261815Z AUTO 29005KT 10SM CLR 34/M02 A2992 RMK AO2 T03411021
KBPG 261755Z AUTO 28005KT 10SM CLR 34/M03 A2992 RMK AO2 T03391032 10341 20187
KBPG 261735Z AUTO 33003G09KT 10SM CLR 33/M03 A2993 RMK AO2 T03341034
KBPG 261715Z AUTO 31010KT 10SM CLR 33/M03 A2993 RMK AO2 T03341031
KBPG 261655Z AUTO 29007KT 10SM CLR 33/M03 A2993 RMK AO2 T03281032
KBPG 261635Z AUTO 28005KT 10SM CLR 33/00 A2993 RMK AO2 T03260000
KBPG 261615Z AUTO 29009KT 10SM CLR 32/02 A2993 RMK AO2 T03220015
KBPG 261555Z AUTO 30008KT 10SM CLR 32/03 A2993 RMK AO2 T03160032
KBPG 261535Z AUTO 29010KT 10SM CLR 31/06 A2993 RMK AO2 T03100057
KBPG 261515Z AUTO 28008KT 10SM CLR 30/09 A2993 RMK AO2 T03000093
KBPG 261455Z AUTO 27005KT 10SM CLR 28/14 A2993 RMK AO2 T02820138
KBPG 261435Z AUTO 27004KT 10SM CLR 27/15 A2992 RMK AO2 T02670148
KBPG 261415Z AUTO 25004KT 10SM CLR 26/16 A2991 RMK AO2 T02570164
KBPG 261355Z AUTO 21005KT 10SM CLR 25/17 A2991 RMK AO2 T02460174
KBPG 261335Z AUTO 18007KT 10SM CLR 23/18 A2990 RMK AO2 T02340176
KBPG 261315Z AUTO 16007KT 10SM CLR 22/18 A2989 RMK AO2 T02220175
KBPG 261255Z AUTO 16008KT 10SM CLR 21/17 A2988 RMK AO2 T02130171
KBPG 261235Z AUTO 15006KT 10SM CLR 20/17 A2988 RMK AO2 T01990167
KBPG 261215Z AUTO 14006KT 7SM CLR 19/16 A2987 RMK AO2 T01890160
KBPG 261155Z AUTO 14004KT 10SM CLR 19/16 A2986 RMK AO2 T01890159 10251 20189
KBPG 261135Z AUTO 13004KT 10SM CLR 19/16 A2985 RMK AO2 T01930160
KBPG 261115Z AUTO 00000KT 10SM CLR 19/16 A2984 RMK AO2 T01920158
KBPG 261055Z AUTO 16005KT 10SM CLR 20/16 A2984 RMK AO2 T02020161
KBPG 261035Z AUTO 16005KT 10SM CLR 20/16 A2983 RMK AO2 T01960159
KBPG 261015Z AUTO 15005KT 10SM CLR 21/16 A2982 RMK AO2 T02090160
KBPG 260955Z AUTO 18004KT 10SM CLR 21/16 A2982 RMK AO2 T02140160
KBPG 260935Z AUTO 17006KT 10SM CLR 22/16 A2980 RMK AO2 T02180160
KBPG 260915Z AUTO 16007KT 10SM CLR 22/16 A2980 RMK AO2 T02210160
KBPG 260855Z AUTO 16007KT 10SM CLR 22/16 A2980 RMK AO2 T02240160
KBPG 260835Z AUTO 17008KT 10SM CLR 23/16 A2979 RMK AO2 T02270160
KBPG 260815Z AUTO 17008KT 10SM CLR 23/16 A2979 RMK AO2 T02290158
KBPG 260755Z AUTO 18007KT 10SM CLR 23/16 A2979 RMK AO2 T02310157
KBPG 260735Z AUTO 19009KT 10SM CLR 24/16 A2978 RMK AO2 T02390156
KBPG 260715Z AUTO 19010KT 10SM CLR 24/16 A2978 RMK AO2 T02420155
KBPG 260655Z AUTO 19011KT 10SM CLR 25/15 A2978 RMK AO2 T02460154
KBPG 260635Z AUTO 19012KT 10SM CLR 25/15 A2978 RMK AO2 T02460152
KBPG 260615Z AUTO 18013KT 10SM CLR 25/15 A2978 RMK AO2 T02490150
KBPG 260555Z AUTO 18014G18KT 10SM CLR 25/15 A2978 RMK AO2 T02510146 10357 20251 403770163
KBPG 260535Z AUTO 18012KT 10SM CLR 25/14 A2977 RMK AO2 LTG DSNT N T02530142
KBPG 260515Z AUTO 18013KT 10SM CLR 26/14 A2977 RMK AO2 T02550135
KBPG 260455Z AUTO 17013G18KT 10SM CLR 26/13 A2977 RMK AO2 T02580129
KBPG 260435Z AUTO 17013KT 10SM CLR 26/12 A2976 RMK AO2 T02610123
KBPG 260415Z AUTO 17011KT 10SM CLR 27/12 A2975 RMK AO2 T02700119
KBPG 260355Z AUTO 17014KT 10SM CLR 27/11 A2975 RMK AO2 T02700112
KBPG 260335Z AUTO 16011KT 10SM CLR 27/09 A2974 RMK AO2 T02650086
KBPG 260315Z AUTO 16011KT 10SM CLR 26/03 A2973 RMK AO2 T02600025
KBPG 260255Z AUTO 19008KT 10SM CLR 27/02 A2971 RMK AO2 T02650015
KBPG 260235Z AUTO 21009KT 10SM CLR 28/01 A2970 RMK AO2 T02750011
KBPG 260215Z AUTO 21007KT 10SM CLR 28/02 A2970 RMK AO2 T02750016
KBPG 260155Z AUTO 21007KT 10SM CLR 29/01 A2968 RMK AO2 T02860009
KBPG 260135Z AUTO 21008KT 10SM CLR 30/01 A2968 RMK AO2 T03000007
KBPG 260115Z AUTO 20008KT 10SM CLR 32/M01 A2967 RMK AO2 T03171013
KBPG 260055Z AUTO 23012KT 10SM CLR 34/M04 A2966 RMK AO2 T03391038
KBPG 260035Z AUTO 23013G20KT 10SM CLR 34/M05 A2965 RMK AO2 T03441049
KBPG 260015Z AUTO 23013KT 10SM CLR 35/M02 A2965 RMK AO2 T03521019
KBPG 252355Z AUTO 23015KT 10SM CLR 35/M01 A2965 RMK AO2 T03531014 10377 20339
KBPG 252335Z AUTO 21018G21KT 10SM CLR 36/00 A2965 RMK AO2 T03581002
KBPG 252315Z AUTO 21014G20KT 10SM CLR 35/M01 A2966 RMK AO2 T03501006
KBPG 252255Z AUTO 21019G27KT 10SM CLR 36/M01 A2966 RMK AO2 T03561008
KBPG 252235Z AUTO 22019G29KT 10SM CLR 37/M01 A2966 RMK AO2 T03701006
KBPG 252215Z AUTO 22017G23KT 10SM CLR 37/00 A2966 RMK AO2 T03701005
KBPG 252155Z AUTO 22016G26KT 10SM CLR 36/M02 A2966 RMK AO2 T03631016
KBPG 252135Z AUTO 23025G31KT 10SM CLR 38/M01 A2967 RMK AO2 T03771015
KBPG 252115Z AUTO 24018KT 10SM CLR 37/M01 A2967 RMK AO2 T03671010
KBPG 252055Z AUTO 23020G24KT 10SM CLR 38/M01 A2968 RMK AO2 T03761006
KBPG 252035Z AUTO 26021KT 10SM CLR 38/M01 A2968 RMK AO2 T03761011
KBPG 252015Z AUTO 23019G25KT 10SM CLR 36/M01 A2969 RMK AO2 T03641012
KBPG 251955Z AUTO 22014G24KT 10SM CLR 37/M01 A2969 RMK AO2 T03671007
KBPG 251935Z AUTO 22015G23KT 10SM CLR 38/00 A2969 RMK AO2 T03751001
KBPG 251915Z AUTO 23015G19KT 10SM CLR 37/01 A2970 RMK AO2 T03670013
KBPG 251855Z AUTO 22014G19KT 10SM CLR 37/01 A2970 RMK AO2 T03650013
KBPG 251835Z AUTO 26013G17KT 210V290 10SM CLR 36/04 A2970 RMK AO2 T03580036
KBPG 251815Z AUTO 19014G19KT 10SM CLR 35/04 A2971 RMK AO2 T03470044
KBPG 251755Z AUTO 20012KT 10SM CLR 34/05 A2973 RMK AO2 T03430049 10343 20163
KBPG 251735Z AUTO 20013G18KT 10SM CLR 33/06 A2973 RMK AO2 T03300064
KBPG 251715Z AUTO 21012KT 10SM CLR 32/06 A2973 RMK AO2 T03220060
KBPG 251655Z AUTO 21010KT 10SM CLR 32/06 A2973 RMK AO2 T03190059
KBPG 251635Z AUTO 21008KT 10SM CLR 30/08 A2973 RMK AO2 T03020077
KBPG 251615Z AUTO 21010KT 10SM CLR 29/08 A2973 RMK AO2 T02900083
KBPG 251555Z AUTO 22014KT 10SM CLR 28/08 A2974 RMK AO2 T02760083
KBPG 251535Z AUTO 22014KT 10SM CLR 26/09 A2975 RMK AO2 T02600085
KBPG 251515Z AUTO 21014KT 10SM CLR 25/09 A2975 RMK AO2 T02520089
KBPG 251455Z AUTO 20014KT 10SM CLR 24/09 A2975 RMK AO2 T02410086
KBPG 251435Z AUTO 20012KT 10SM CLR 23/09 A2975 RMK AO2 T02320089
KBPG 251415Z AUTO 19013KT 10SM CLR 22/09 A2973 RMK AO2 T02240092
KBPG 251355Z AUTO 19010KT 10SM CLR 21/09 A2973 RMK AO2 T02090088
KBPG 251335Z AUTO 18012KT 10SM CLR 20/08 A2973 RMK AO2 T01970083
KBPG 251315Z AUTO 18011KT 10SM CLR 19/08 A2972 RMK AO2 T01880081
KBPG 251255Z AUTO 17012KT 10SM CLR 18/08 A2971 RMK AO2 T01790078
KBPG 251235Z AUTO 17009KT 10SM CLR 17/08 A2971 RMK AO2 T01710077
KBPG 251215Z AUTO 17010KT 10SM CLR 17/08 A2971 RMK AO2 T01660077
KBPG 251155Z AUTO 17010KT 10SM CLR 16/08 A2970 RMK AO2 T01630077 10202 20163
KBPG 251135Z AUTO 16010KT 10SM CLR 16/08 A2970 RMK AO2 T01640078
KBPG 251115Z AUTO 17011KT 10SM CLR 17/08 A2969 RMK AO2 T01670079
KBPG 251055Z AUTO 17011KT 10SM CLR 17/08 A2970 RMK AO2 T01700080
KBPG 251035Z AUTO 18010KT 10SM CLR 17/08 A2970 RMK AO2 T01700080
KBPG 251015Z AUTO 18012KT 10SM CLR 17/08 A2969 RMK AO2 T01740080
KBPG 250955Z AUTO 17013KT 10SM CLR 18/08 A2969 RMK AO2 T01750078
KBPG 250935Z AUTO 17011KT 10SM CLR 18/08 A2969 RMK AO2 T01770077
KBPG 250915Z AUTO 17012KT 10SM CLR 18/08 A2969 RMK AO2 T01800076
KBPG 250855Z AUTO 17013KT 10SM CLR 18/07 A2969 RMK AO2 T01830074


Page loaded:  20:53 UTC  |   01:53 PM Pacific  |   02:53 PM Mountain  |   03:53 PM Central  |   04:53 PM Eastern

 

ADVISORIES

FORECASTS

FORECASTS

OBSERVATIONS

USER TOOLS

ABOUT US